| Station | Date | Time | Temp (°F) | RH (%) | Dew Pt (°F) | Wind Spd (mph) | Wind Dir (°) | Wind Gust (mph) | Latest Rain (In) | Daily Rain (In) | Daily Max Temp (°F) | Daily Min Temp (°F) |
|---|---|---|---|---|---|---|---|---|---|---|---|---|
| Montesol | 9/5/26 | 1415 | 71.8 4.3 | - | - | - | - | - | 0.00 | 0.00 | 73.5 1.7 | 45.1 2.2 |
| Pope Valley (Weeks Lake) | 9/5/26 | 1415 | 78.6 5.8 | 30 6 | 44.3 0.3 | 4.4 1.4 | SSW | 212 | 15.8 8.3 | 0.00 | 0.00 | 80.3 5.5 | 38.4 2.4 |
| Dollarhide Base | 9/5/26 | 1415 | 81.9 6.5 | 33 7 | 50.0 0.4 | 5.7 1.9 | WSW | 251 | 12.6 1.2 | 0.00 | 0.00 | 83.2 3.4 | 45.2 2.5 |
| Dollarhide 16A Remote | 9/5/26 | 1415 | 82.2 2.8 | 32 6 | 49.7 2.1 | - | - | - | - | - | 83.2 2.7 | 44.1 2.4 |
| Hardin Rd (Eakle) | 9/5/26 | 1415 | 78.6 1.6 | - | - | - | - | - | - | - | 83.2 5.7 | 41.4 3.0 |
| Angwin | 9/5/26 | 1415 | 70.2 3.4 | 43 7 | 46.4 1.1 | 2.9 0.1 | SE | 139 | 8.4 0.5 | 0.00 | 0.00 | 71.7 4.4 | 51.5 3.9 |
| Lower Angwin (Pioneer) | 9/5/26 | 1415 | 70.4 2.9 | - | - | 1.5 0.8 | S | 183 | 7.4 1.5 | - | - | 72.8 4.0 | 40.4 1.9 |
| Las Posadas (Cal Fire) | 9/5/26 | 1415 | 75.8 6.6 | 39 9 | 48.8 0.4 | 7.9 0.2 | SSW | 205 | 20.5 6.0 | 0.00 | 0.00 | 76.4 5.5 | 47.8 0.5 |
| Lower Chiles Valley (Brown) | 9/5/26 | 1415 | 78.6 5.0 | 28 8 | 42.5 2.1 | 4.4 0.2 | S | 170 | 10.0 1.0 | 0.00 | 0.00 | 79.5 5.2 | 38.5 8.5 |
| Moss Creek Vineyard/Reservior | 9/5/26 | 1315 | 80.4 5.6 | 30 11 | 46.2 3.6 | - | - | - | 0.00 | 0.00 | 81.2 4.4 | 43.8 3.6 |
| Max | 82.2 | 43 | 50.0 | 7.9 | - | 20.5 | 0.00 | 0.00 | 83.2 | 51.5 | ||
| Avg | 76.9 | 33 | 46.8 | 4.5 | - | 12.4 | 0.00 | - | - | - | ||
| Min | 70.2 | 28 | 42.5 | 1.5 | - | 7.4 | 0.00 | 0.00 | 71.7 | 38.4 |
| Station | Date | Time | Temp (°F) | RH (%) | Dew Pt (°F) | Wind Spd (mph) | Wind Dir (°) | Wind Gust (mph) | Latest Rain (In) | Daily Rain (In) | Daily Max Temp (°F) | Daily Min Temp (°F) |
|---|---|---|---|---|---|---|---|---|---|---|---|---|
| Tenma (North Calistoga) | 9/5/26 | 1415 | 83.3 5.1 | - | - | - | - | - | 0.00 | 0.00 | 83.7 5.4 | 44.1 7.8 |
| Calistoga-Solari | 9/5/26 | 1415 | 79.2 5.3 | 32 8 | 46.7 1.6 | 6.1 1.7 | WSW | 250 | 13.4 2.2 | 0.00 | 0.00 | 79.6 4.6 | 43.1 5.6 |
| Calistoga-North | 9/5/26 | 1415 | 82.0 4.7 | 34 7 | 50.8 0.6 | - | - | - | 0.00 | 0.00 | 82.9 3.8 | 45.1 5.2 |
| Twomey Calistoga | 9/5/26 | 1415 | 83.1 4.8 | 32 3 | 50.5 1.7 | 4.1 0.3 | WSW | 249 | 9.9 1.2 | 0.00 | 0.00 | 84.2 4.7 | 39.7 9.1 |
| Paloma | 9/5/26 | 1415 | 82.4 3.8 | 33 6 | 50.6 1.4 | 5.5 0.2 | NE | 48 | 12.4 2.8 | 0.00 | 0.00 | 82.7 4.0 | 41.1 10.0 |
| Calistoga (Ranch 78) | 9/5/26 | 1415 | 80.9 3.8 | 29 7 | 45.3 2.7 | 5.7 2.6 | W | 275 | 14.6 5.0 | 0.00 | 0.00 | 81.7 4.4 | 41.5 10.7 |
| Diamond Mtn (Schramsberg) | 9/5/26 | 1415 | 78.2 5.4 | 34 6 | 47.6 0.4 | - | - | - | 0.00 | 0.00 | 78.7 4.5 | 50.2 1.0 |
| Diamond Mtn (McEachran) | 9/5/26 | 1415 | 77.2 5.4 | 36 6 | 48.1 0.9 | - | - | - | - | - | 79.7 6.9 | 49.3 2.4 |
| Deer Park | 9/5/26 | 1415 | 80.9 6.7 | 32 5 | 48.2 1.6 | 4.3 0.2 | SSW | 205 | 10.4 1.3 | 0.00 | 0.00 | 81.4 4.8 | 50.1 4.3 |
| St. Helena-North | 9/5/26 | 1415 | 78.8 1.6 | 32 2 | 46.5 0.0 | 1.6 1.2 | SE | 143 | 5.9 1.3 | 0.00 | 0.00 | 80.2 2.2 | 46.2 5.5 |
| St. Helena (NVV Office) | 9/5/26 | 1415 | 78.5 1.4 | - | - | 2.6 1.3 | NNE | 31 | 6.0 0.8 | 0.00 | 0.00 | 82.3 4.2 | 46.3 2.7 |
| Tiara Fria (East St. Helena) | 9/5/26 | 1415 | 78.9 4.8 | 34 6 | 48.4 0.2 | 2.6 1.1 | E | 80 | 7.5 2.8 | 0.00 | 0.00 | 79.8 4.7 | 43.2 6.0 |
| Prisoner Winery | 9/5/26 | 1415 | 83.7 5.8 | 30 4 | 49.3 1.4 | 3.1 0.7 | SSE | 152 | 12.1 6.5 | 0.00 | 0.00 | 85.6 7.0 | 44.0 4.2 |
| Rutherford Hill Estate | 9/5/26 | 1415 | 81.7 5.0 | 33 6 | 49.5 0.1 | 3.0 0.7 | SW | 218 | 9.6 2.8 | 0.00 | 0.00 | 82.8 4.7 | 49.7 1.8 |
| Rutherford-North (Mee Ln) | 9/5/26 | 1415 | 80.5 2.8 | 33 5 | 49.0 1.5 | 5.6 3.3 | ESE | 121 | 12.5 5.9 | 0.00 | 0.00 | 81.3 2.7 | 41.6 2.4 |
| Rutherford (STS) | 9/5/26 | 1415 | 82.5 6.1 | 38 6 | 54.1 1.6 | 2.9 0.7 | SE | 144 | 9.4 4.2 | 0.00 | 0.00 | 84.3 2.0 | 41.1 4.5 |
| Silver Oak OV | 9/5/26 | 1415 | 79.7 4.1 | 35 5 | 49.7 0.2 | 6.1 3.3 | SE | 137 | 11.5 3.8 | 0.00 | 0.00 | 80.1 3.2 | 41.7 8.5 |
| Oakville-NE (Ranch 88) | 9/5/26 | 1415 | 82.5 4.7 | 30 6 | 47.8 0.8 | 3.6 1.8 | S | 182 | 9.9 1.2 | 0.00 | 0.00 | 83.1 4.9 | 40.3 8.6 |
| Crossroads Ranch | 9/5/26 | 1415 | 80.5 5.8 | 39 5 | 53.2 1.9 | 6.2 3.5 | SSE | 149 | 13.1 4.7 | 0.00 | 0.00 | 81.0 6.0 | 42.1 9.3 |
| Oakville | 9/5/26 | 1415 | 79.7 3.0 | 34 4 | 49.0 0.2 | 5.8 2.9 | SE | 140 | 11.6 3.9 | 0.00 | 0.00 | 80.3 2.9 | 42.2 9.1 |
| To Kalon Remote (TKKE) | 9/5/26 | 1415 | 82.1 5.6 | - | - | - | - | - | - | - | 83.0 5.1 | 43.0 4.5 |
| To Kalon | 9/5/26 | 1415 | 79.8 5.2 | 36 7 | 50.3 0.0 | 5.4 2.5 | ESE | 120 | 10.3 3.9 | 0.00 | 0.00 | 80.9 3.8 | 43.7 4.9 |
| To Kalon Remote (TKN5) | 9/5/26 | 1415 | 81.9 6.1 | - | - | - | - | - | - | - | 83.1 5.6 | 43.2 4.8 |
| Jump Rock | 9/5/26 | 1415 | 74.6 4.2 | 37 13 | 46.6 4.2 | 4.2 0.9 | W | 280 | 8.8 0.7 | 0.00 | 0.00 | 75.0 4.2 | 40.8 5.2 |
| State Lane Ranch | 9/5/26 | 1415 | 80.4 3.2 | 39 7 | 53.4 1.4 | 5.4 1.6 | SE | 142 | 11.3 1.5 | 0.00 | 0.00 | 81.7 3.5 | 40.9 11.6 |
| Yountville (Ranch 67) | 9/5/26 | 1415 | 79.2 3.0 | 33 7 | 47.2 2.4 | 4.8 2.3 | SE | 126 | 12.8 6.0 | 0.00 | 0.00 | 79.5 3.3 | 41.4 11.3 |
| Borreo (Soda Canyon) | 9/5/26 | 1315 | 75.7 4.6 | 37 7 | 47.3 0.3 | 3.2 0.1 | S | 189 | 9.5 2.5 | 0.00 | 0.00 | 76.9 5.5 | 45.7 4.3 |
| Wappo Hill Floor | 9/5/26 | 1415 | 81.0 4.2 | 34 6 | 50.4 0.4 | 4.9 1.5 | SSE | 148 | 11.6 4.1 | 0.00 | 0.00 | 81.0 4.2 | 41.8 10.3 |
| Wappo Hill | 9/5/26 | 1415 | 81.4 7.4 | 34 10 | 50.1 0.2 | 5.8 1.9 | SSE | 153 | 11.4 0.4 | 0.00 | 0.00 | 81.5 5.0 | 46.9 7.4 |
| Stags Leap Dist (Chimney Rock) | 9/5/26 | 1415 | 79.4 4.0 | 42 7 | 54.1 0.8 | 4.6 2.2 | SSE | 165 | 12.4 3.8 | 0.00 | 0.00 | 80.0 4.2 | 41.7 13.9 |
| Stags Leap Dist (Silverado Vineyards) | 9/5/26 | 1400 | 78.6 4.8 | 34 8 | 47.7 1.7 | 4.0 0.6 | SE | 136 | 9.6 2.4 | 0.00 | 0.00 | 79.2 3.7 | 42.4 10.9 |
| Yountville-SE (Ranch 85) | 9/5/26 | 1415 | 79.7 5.2 | 35 9 | 49.9 1.6 | 2.9 0.2 | SSW | 204 | 7.4 0.2 | 0.00 | 0.00 | 80.1 4.8 | 43.2 11.6 |
| Yountville-South (Ranch 87) | 9/5/26 | 1415 | 80.5 6.4 | 34 12 | 49.9 2.1 | 4.2 2.5 | S | 186 | 9.3 3.0 | 0.00 | 0.00 | 81.2 5.7 | 42.8 11.3 |
| Max | 83.7 | 42 | 54.1 | 6.2 | - | 14.6 | 0.00 | 0.00 | 85.6 | 50.2 | ||
| Avg | 80.3 | 34 | 49.3 | 4.4 | - | 10.5 | 0.00 | - | - | - | ||
| Min | 74.6 | 29 | 45.3 | 1.6 | - | 5.9 | 0.00 | 0.00 | 75.0 | 39.7 |
| Station | Date | Time | Temp (°F) | RH (%) | Dew Pt (°F) | Wind Spd (mph) | Wind Dir (°) | Wind Gust (mph) | Latest Rain (In) | Daily Rain (In) | Daily Max Temp (°F) | Daily Min Temp (°F) |
|---|---|---|---|---|---|---|---|---|---|---|---|---|
| Mt. Veeder | 9/5/26 | 1415 | 72.5 4.0 | 37 12 | 44.5 3.7 | 5.0 2.8 | SSE | 156 | 10.9 5.7 | 0.00 | 0.00 | 73.1 3.4 | 53.7 4.0 |
| Soda Canyon | 9/5/26 | 1415 | 78.9 4.2 | 49 5 | 58.3 1.3 | 4.8 0.9 | S | 187 | 11.3 0.9 | 0.00 | 0.00 | 79.5 3.7 | 43.2 11.5 |
| Big Ranch Rd | 9/5/26 | 1415 | 80.5 6.5 | - | - | - | - | - | - | - | 80.9 4.8 | 44.3 11.1 |
| Oak Knoll-East (Ranch 53) | 9/5/26 | 1415 | 79.7 3.5 | 34 4 | 48.9 0.1 | 3.2 1.1 | S | 182 | 7.9 1.4 | 0.00 | 0.00 | 80.3 2.7 | 44.3 9.3 |
| Napa-NW (Ranch 54) | 9/5/26 | 1415 | 81.3 5.5 | 33 6 | 49.1 0.4 | 1.8 0.0 | SSW | 196 | 8.6 2.5 | 0.00 | 0.00 | 81.7 5.0 | 46.6 5.8 |
| Frisinger Napa-NW | 9/5/26 | 1415 | 80.7 5.3 | 37 8 | 51.7 0.5 | 5.3 1.1 | SSW | 207 | 13.2 2.8 | 0.00 | 0.00 | 80.7 4.6 | 44.3 6.7 |
| Napa-North (Ranch 29) | 9/5/26 | 1415 | 78.8 5.1 | 38 7 | 51.2 0.1 | 4.0 1.5 | S | 175 | 10.4 2.2 | 0.00 | 0.00 | 79.4 4.3 | 44.7 8.2 |
| Mount George (Napa East) | 9/5/26 | 1415 | 77.5 3.7 | 35 8 | 47.8 2.2 | 3.5 0.1 | W | 260 | 9.4 1.3 | 0.00 | 0.00 | 77.5 3.6 | 43.1 7.9 |
| Napa-East (Palmaz 300') | 9/5/26 | 1415 | 82.2 4.6 | 30 9 | 48.1 2.5 | 3.4 1.3 | WSW | 252 | 9.1 1.5 | 0.00 | 0.00 | 83.1 5.1 | 46.4 5.9 |
| Napa-East (Palmaz 1200') | 7/4/26 | 0630 | 49.8 0.1 | 72 2 | 40.8 1.0 | 0.2 0.5 | E | 79 | 2.0 0.4 | - | - | 51.0 1.7 | 48.0 0.9 |
| Napa-East (Palmaz 1400') | 9/5/26 | 1415 | 74.8 5.1 | 39 12 | 47.9 2.4 | 4.7 0.6 | SW | 218 | 11.2 1.4 | 0.00 | 0.00 | 76.8 6.1 | 44.9 6.5 |
| Wooden Valley | 9/5/26 | 1415 | 77.6 4.5 | 31 7 | 44.7 1.8 | 4.5 0.8 | WSW | 255 | 9.6 0.8 | 0.00 | 0.00 | 78.4 4.3 | 42.8 1.6 |
| Napa-West Upper (Truchard) | 9/5/26 | 1415 | 80.5 2.9 | 34 2 | 49.4 1.1 | 6.7 1.0 | SSE | 164 | 11.8 2.6 | 0.00 | 0.00 | 80.9 3.0 | 49.6 1.4 |
| Napa-West Lower (Truchard) | 9/5/26 | 1415 | 81.4 3.1 | 33 2 | 49.4 1.5 | - | - | - | - | - | 82.8 3.5 | 41.3 5.1 |
| Sunset Rd | 9/5/26 | 1415 | 78.2 2.8 | 36 0 | 48.9 2.1 | 6.3 2.2 | SE | 142 | 12.1 0.8 | 0.00 | 0.00 | 78.6 2.7 | 45.4 5.6 |
| Napa-South (Toyon Farms) | 9/5/26 | 1415 | 79.5 3.5 | 41 6 | 53.9 0.2 | 6.6 0.3 | S | 189 | 12.1 0.2 | 0.00 | 0.00 | 80.5 3.4 | 49.3 3.3 |
| Dealy Lane (Ranch 80) | 9/5/26 | 1415 | 78.4 2.2 | 37 7 | 50.0 2.6 | 5.2 1.5 | SSE | 158 | 10.1 1.8 | 0.00 | 0.00 | 79.5 2.6 | 45.5 3.2 |
| Carneros (Saintsbury) | 9/5/26 | 1415 | 78.2 3.9 | 37 10 | 49.9 3.0 | 7.3 1.3 | SSE | 168 | 11.8 4.4 | 0.00 | 0.00 | 78.8 2.4 | 42.8 2.2 |
| Suscol Lower (Ranch 35) | 9/5/26 | 1415 | 78.4 3.4 | 34 8 | 48.0 2.3 | 5.7 1.8 | SW | 218 | 12.6 0.7 | 0.00 | 0.00 | 78.8 3.4 | 46.3 6.9 |
| Suscol Mtn (Ranch 93) | 9/5/26 | 1415 | 78.4 8.3 | 35 14 | 48.3 1.8 | 8.9 2.3 | NW | 312 | 16.2 1.2 | 0.00 | 0.00 | 80.4 6.6 | 53.1 1.8 |
| Suscol Upper (Ranch 92) | 9/5/26 | 1415 | 76.1 4.4 | 31 15 | 42.9 6.9 | 5.5 1.6 | SSW | 208 | 11.1 6.9 | 0.00 | 0.00 | 77.7 5.0 | 52.4 0.0 |
| Carneros (Mitsuko) | 9/5/26 | 1415 | 78.2 4.5 | - | - | - | - | - | - | - | 78.9 2.9 | 42.3 9.3 |
| Sugarloaf West | 9/5/26 | 1415 | 77.3 4.2 | 44 8 | 53.9 0.8 | 5.0 1.2 | SSW | 194 | 11.7 0.3 | 0.00 | 0.00 | 77.5 3.8 | 46.9 6.9 |
| Stanly (Ranch 45) | 9/5/26 | 1115 | 69.0 5.2 | 61 11 | 54.9 0.5 | 5.5 0.6 | S | 173 | 9.4 0.7 | 0.00 | 0.00 | 69.3 3.8 | 44.1 5.9 |
| Carneros (Las Amigas Rd) | 9/5/26 | 1415 | 76.0 3.3 | - | - | - | - | - | - | - | 76.8 2.9 | 46.4 8.1 |
| Carneros (Milton Rd) | 9/5/26 | 1415 | 78.6 4.3 | 38 9 | 50.8 1.7 | - | - | - | 0.00 | 0.00 | 79.6 4.6 | 45.3 9.1 |
| Carneros (Ranch 71) | 9/5/26 | 1415 | 76.7 3.1 | 37 0 | 48.6 3.0 | 3.5 3.5 | SSW | 196 | 8.0 5.6 | 0.00 | 0.00 | 78.1 3.4 | 52.1 1.8 |
| Carneros Upper (Ranch 81) | 9/5/26 | 1415 | 80.2 4.4 | 31 2 | 47.2 2.1 | 5.2 4.1 | SSW | 201 | 11.4 5.5 | - | - | 80.2 4.4 | 52.3 1.1 |
| Carneros Lower (Ranch 81) | 9/5/26 | 1415 | 80.0 2.0 | 39 6 | 53.1 6.2 | 4.4 1.9 | S | 172 | 12.6 3.4 | 0.00 | 0.00 | 80.1 0.8 | 45.3 7.1 |
| Toyon Remote 1 | 9/5/26 | 1415 | 79.2 1.6 | - | - | - | - | - | - | - | 80.9 1.5 | 44.6 4.5 |
| Toyon Remote 2 | 9/5/26 | 1415 | 79.2 3.7 | - | - | - | - | - | - | - | 80.1 3.9 | 43.2 6.6 |
| Toyon Remote 3 | 9/5/26 | 1415 | 80.2 1.9 | - | - | - | - | - | - | - | 80.7 1.7 | 43.2 6.2 |
| Max | 82.2 | 49 | 58.3 | 8.9 | - | 16.2 | 0.00 | 0.00 | 83.1 | 53.7 | ||
| Avg | 78.6 | 36 | 49.4 | 5.0 | - | 11.0 | 0.00 | - | - | - | ||
| Min | 72.5 | 30 | 42.9 | 1.8 | - | 7.9 | 0.00 | 0.00 | 73.1 | 41.3 |